Time;durP1;ratioP1;P1;durP2;ratioP2;P2;SDS_P1;SDS_P2;PMS_P1;PMS_P2;Temp;Humidity;BMP_temperature;BMP_pressure;BME280_temperature;BME280_humidity;BME280_pressure;Samples;Min_cycle;Max_cycle;Signal;HPM_P1;HPM_P2
2022/02/27 00:00:55;;;;;;;18.25;9.13;;;;;;;3.58;56.37;95812.88;5087455;28;20028;-70
2022/02/27 00:03:20;;;;;;;14.98;8.90;;;;;;;3.55;56.37;95805.16;5086422;28;20028;-71
2022/02/27 00:05:45;;;;;;;15.95;9.77;;;;;;;3.57;55.68;95811.19;5087420;28;20028;-72
2022/02/27 00:08:11;;;;;;;19.02;8.77;;;;;;;3.57;56.42;95812.06;5086999;28;20466;-71
2022/02/27 00:10:36;;;;;;;18.58;10.00;;;;;;;3.59;56.01;95806.63;5086323;28;20510;-71
2022/02/27 00:13:02;;;;;;;17.55;9.57;;;;;;;3.59;56.08;95815.41;5085945;28;20028;-72
2022/02/27 00:15:27;;;;;;;15.85;9.18;;;;;;;3.66;55.92;95813.09;5085893;28;20028;-71
2022/02/27 00:17:52;;;;;;;18.23;10.80;;;;;;;3.65;55.95;95819.38;5085922;28;20028;-72
2022/02/27 00:20:18;;;;;;;14.25;9.52;;;;;;;3.61;56.02;95798.53;5086312;28;20024;-71
2022/02/27 00:22:43;;;;;;;17.15;9.82;;;;;;;3.77;55.62;95811.41;5087438;28;20028;-72
2022/02/27 00:25:09;;;;;;;18.85;9.18;;;;;;;3.61;55.76;95796.69;5086076;28;20031;-71
2022/02/27 00:27:35;;;;;;;19.08;9.70;;;;;;;3.65;56.00;95797.31;5068625;28;20031;-71
2022/02/27 00:30:01;;;;;;;18.73;10.50;;;;;;;3.63;55.82;95786.81;5086894;28;20111;-72
2022/02/27 00:32:26;;;;;;;25.45;11.27;;;;;;;3.65;56.39;95792.00;5086127;28;20389;-70
2022/02/27 00:34:51;;;;;;;22.08;9.50;;;;;;;3.62;56.52;95774.53;5087153;28;20035;-70
2022/02/27 00:37:17;;;;;;;16.60;10.13;;;;;;;3.64;56.23;95764.66;5085294;28;20223;-71
2022/02/27 00:39:42;;;;;;;17.77;10.60;;;;;;;3.53;56.76;95754.91;5087082;28;20031;-71
2022/02/27 00:42:08;;;;;;;17.75;11.10;;;;;;;3.55;57.00;95754.75;5085588;28;20459;-71
2022/02/27 00:44:33;;;;;;;14.70;9.68;;;;;;;3.53;56.44;95762.84;5068549;28;20020;-71
2022/02/27 00:46:58;;;;;;;18.65;9.48;;;;;;;3.51;57.07;95764.81;5086664;28;20326;-73
2022/02/27 00:49:24;;;;;;;20.17;8.93;;;;;;;3.49;57.54;95756.13;5085960;28;20028;-71
2022/02/27 00:51:49;;;;;;;16.05;9.55;;;;;;;3.55;57.45;95757.41;5086518;28;20284;-70
2022/02/27 00:54:15;;;;;;;23.83;10.35;;;;;;;3.58;57.46;95750.06;5084739;28;20035;-71
2022/02/27 00:56:40;;;;;;;17.23;10.75;;;;;;;3.66;57.09;95745.94;5086729;28;20036;-71
2022/02/27 00:59:06;;;;;;;18.23;10.40;;;;;;;3.69;57.64;95741.22;5085352;28;20028;-71
2022/02/27 01:01:31;;;;;;;19.05;9.77;;;;;;;3.68;57.05;95741.34;5086688;28;20048;-72
2022/02/27 01:03:57;;;;;;;17.40;9.50;;;;;;;3.76;57.22;95741.56;5085919;28;20024;-72
2022/02/27 01:06:23;;;;;;;18.45;10.07;;;;;;;3.69;57.33;95738.56;5086180;28;20081;-72
2022/02/27 01:08:49;;;;;;;17.13;10.65;;;;;;;3.79;56.77;95748.44;5084963;28;20138;-72
2022/02/27 01:11:14;;;;;;;20.70;10.80;;;;;;;3.66;57.58;95753.91;5083887;28;20020;-72
2022/02/27 01:13:40;;;;;;;20.20;10.57;;;;;;;3.55;57.87;95757.41;5086660;28;20024;-71
2022/02/27 01:16:06;;;;;;;21.17;10.98;;;;;;;3.63;57.38;95751.50;5085130;28;20032;-70
2022/02/27 01:18:32;;;;;;;21.40;10.30;;;;;;;3.61;57.51;95753.44;5085140;28;20461;-71
2022/02/27 01:20:57;;;;;;;17.65;11.05;;;;;;;3.55;57.92;95766.22;5085231;28;20509;-71
2022/02/27 01:23:23;;;;;;;17.23;10.73;;;;;;;3.58;57.48;95771.28;5068062;28;20032;-71
2022/02/27 01:25:48;;;;;;;22.42;11.30;;;;;;;3.69;57.74;95761.63;5085699;28;20422;-71
2022/02/27 01:28:14;;;;;;;19.20;10.85;;;;;;;3.63;57.81;95756.81;5084098;28;20596;-71
2022/02/27 01:30:39;;;;;;;16.52;10.07;;;;;;;3.54;57.53;95761.06;5086282;28;20029;-71
2022/02/27 01:33:05;;;;;;;16.83;10.68;;;;;;;3.55;57.38;95760.94;5085106;28;20024;-71
2022/02/27 01:35:30;;;;;;;17.92;10.60;;;;;;;3.43;57.81;95761.94;5084736;28;20052;-71
2022/02/27 01:37:55;;;;;;;18.95;11.30;;;;;;;3.50;57.79;95763.09;5085040;28;20024;-72
2022/02/27 01:40:21;;;;;;;20.33;12.43;;;;;;;3.49;57.94;95744.66;5084798;28;20244;-72
2022/02/27 01:42:46;;;;;;;17.27;11.60;;;;;;;3.44;58.19;95753.00;5085100;28;20024;-71
2022/02/27 01:45:12;;;;;;;22.40;12.73;;;;;;;3.36;58.80;95750.13;5084721;28;20039;-71
2022/02/27 01:47:37;;;;;;;22.63;12.68;;;;;;;3.37;58.37;95741.22;5085595;28;20407;-71
2022/02/27 01:50:03;;;;;;;19.98;12.15;;;;;;;3.40;58.62;95720.56;5085332;28;20475;-71
2022/02/27 01:52:29;;;;;;;19.05;11.75;;;;;;;3.44;58.47;95722.03;5086290;28;20052;-70
2022/02/27 01:54:54;;;;;;;19.88;12.13;;;;;;;3.45;58.57;95728.19;5084554;28;20107;-71
2022/02/27 01:57:20;;;;;;;20.00;12.30;;;;;;;3.53;59.01;95723.06;5084520;28;20039;-70
2022/02/27 01:59:45;;;;;;;23.70;13.65;;;;;;;3.44;59.20;95722.03;5083826;28;20055;-71
2022/02/27 02:02:11;;;;;;;23.08;12.63;;;;;;;3.46;58.73;95725.41;5084749;28;20020;-71
2022/02/27 02:04:36;;;;;;;21.33;12.15;;;;;;;3.42;58.90;95718.66;5085660;28;20120;-71
2022/02/27 02:07:01;;;;;;;23.85;12.82;;;;;;;3.49;58.38;95721.66;5089311;28;20421;-71
2022/02/27 02:09:27;;;;;;;21.05;12.38;;;;;;;3.44;58.78;95732.63;5088025;28;20042;-71
2022/02/27 02:11:52;;;;;;;21.02;12.23;;;;;;;3.52;58.71;95729.34;5088742;28;20028;-70
2022/02/27 02:14:18;;;;;;;22.40;12.35;;;;;;;3.50;58.63;95755.16;5090330;28;20024;-70
2022/02/27 02:16:45;;;;;;;23.95;13.20;;;;;;;3.52;58.90;95752.38;5086529;28;20035;-71
2022/02/27 02:19:14;;;;;;;19.60;11.60;;;;;;;3.51;59.10;95758.66;5088755;28;20016;-69
2022/02/27 02:21:46;;;;;;;22.52;12.75;;;;;;;3.44;58.86;95753.00;5087176;28;20522;-71
2022/02/27 02:24:12;;;;;;;21.05;12.35;;;;;;;3.45;59.33;95733.50;5088326;28;20445;-72
2022/02/27 02:26:40;;;;;;;21.42;11.90;;;;;;;3.27;59.86;95704.84;5087663;28;20107;-72
2022/02/27 02:29:06;;;;;;;20.45;13.63;;;;;;;3.31;59.38;95703.63;5087435;28;20477;-71
2022/02/27 02:31:34;;;;;;;19.00;11.93;;;;;;;3.30;59.49;95693.16;5089355;28;20032;-72
2022/02/27 02:34:03;;;;;;;20.85;12.75;;;;;;;3.33;59.48;95677.84;5087928;28;20352;-71
2022/02/27 02:36:29;;;;;;;18.38;12.27;;;;;;;3.38;59.39;95692.50;5089079;28;20042;-72
2022/02/27 02:38:54;;;;;;;24.50;12.55;;;;;;;3.37;59.06;95704.91;5088264;28;20028;-71
2022/02/27 02:41:19;;;;;;;19.58;12.10;;;;;;;3.41;59.02;95719.63;5088988;28;20024;-71
2022/02/27 02:43:48;;;;;;;23.40;12.65;;;;;;;3.48;58.93;95732.38;5088402;28;20035;-72
2022/02/27 02:46:14;;;;;;;16.73;11.23;;;;;;;3.23;59.54;95727.25;5088436;28;20016;-72
2022/02/27 02:48:39;;;;;;;21.27;12.57;;;;;;;3.26;59.89;95742.06;5089051;28;20363;-72
2022/02/27 02:51:04;;;;;;;20.60;11.35;;;;;;;3.18;60.28;95779.78;5087741;28;20024;-70
2022/02/27 02:53:37;;;;;;;20.23;12.30;;;;;;;3.32;59.54;95790.13;5089433;28;20024;-71
2022/02/27 02:56:05;;;;;;;19.38;11.70;;;;;;;3.36;59.81;95816.41;5087576;28;20121;-71
2022/02/27 02:58:32;;;;;;;20.33;11.77;;;;;;;3.39;59.27;95795.81;5071049;28;20035;-71
2022/02/27 03:00:57;;;;;;;21.88;12.10;;;;;;;3.34;59.17;95782.06;5088342;28;20305;-71
2022/02/27 03:03:23;;;;;;;20.17;10.93;;;;;;;3.43;58.77;95765.41;5086842;28;20031;-71
2022/02/27 03:05:48;;;;;;;17.70;10.80;;;;;;;3.29;59.04;95763.06;5087221;28;20020;-71
2022/02/27 03:08:14;;;;;;;21.90;11.55;;;;;;;3.38;59.17;95761.44;5087668;28;20431;-71
2022/02/27 03:10:39;;;;;;;18.98;11.00;;;;;;;3.26;59.35;95745.56;5088798;28;20621;-72
2022/02/27 03:13:04;;;;;;;17.80;10.70;;;;;;;3.32;59.11;95766.28;5087328;28;20023;-72
2022/02/27 03:15:30;;;;;;;19.95;11.20;;;;;;;3.23;59.47;95777.63;5087862;28;20024;-71
2022/02/27 03:17:55;;;;;;;21.67;11.13;;;;;;;3.19;59.90;95784.16;5085887;28;20028;-71
2022/02/27 03:20:21;;;;;;;21.35;12.02;;;;;;;3.30;59.58;95801.84;5086823;28;20331;-72
2022/02/27 03:22:46;;;;;;;22.05;11.45;;;;;;;3.36;59.66;95792.53;5087986;28;20102;-71
2022/02/27 03:25:11;;;;;;;20.70;11.23;;;;;;;3.31;59.94;95790.25;5087459;28;20418;-71
2022/02/27 03:27:37;;;;;;;19.58;11.00;;;;;;;3.36;60.02;95798.69;5088394;28;20039;-70
2022/02/27 03:30:03;;;;;;;20.60;11.45;;;;;;;3.44;59.83;95804.22;5086826;28;20035;-72
2022/02/27 03:32:28;;;;;;;18.13;10.85;;;;;;;3.41;60.20;95790.38;5088626;28;20470;-72
2022/02/27 03:34:53;;;;;;;21.67;11.27;;;;;;;3.44;60.66;95816.63;5086544;28;20062;-70
2022/02/27 03:37:19;;;;;;;20.75;11.65;;;;;;;3.29;60.53;95808.94;5088174;28;20028;-72
2022/02/27 03:39:44;;;;;;;19.08;11.60;;;;;;;3.38;60.43;95809.19;5087443;28;20477;-71
2022/02/27 03:42:10;;;;;;;22.95;12.10;;;;;;;3.33;60.63;95794.50;5087437;28;20024;-71
2022/02/27 03:44:35;;;;;;;19.77;10.25;;;;;;;3.33;60.63;95799.81;5086397;28;20346;-70
2022/02/27 03:47:01;;;;;;;21.02;12.60;;;;;;;3.38;61.29;95798.56;5086574;28;20032;-71
2022/02/27 03:49:26;;;;;;;21.15;10.45;;;;;;;3.37;60.42;95794.25;5088428;28;20036;-71
2022/02/27 03:51:51;;;;;;;22.52;12.07;;;;;;;3.27;62.09;95802.09;5086417;28;20028;-72
2022/02/27 03:54:17;;;;;;;20.35;11.50;;;;;;;3.33;62.01;95799.81;5087995;28;20028;-70
2022/02/27 03:56:43;;;;;;;19.65;11.52;;;;;;;3.22;62.95;95805.94;5086501;28;20051;-71
2022/02/27 03:59:09;;;;;;;21.23;11.30;;;;;;;3.16;63.17;95802.94;5087331;28;20032;-71
2022/02/27 04:01:34;;;;;;;18.25;11.25;;;;;;;3.09;63.97;95792.81;5086027;28;20028;-71
2022/02/27 04:04:00;;;;;;;18.90;11.18;;;;;;;3.04;64.30;95784.41;5086641;28;20031;-73
2022/02/27 04:06:26;;;;;;;21.48;11.88;;;;;;;3.04;64.77;95784.41;5087881;28;20020;-70
2022/02/27 04:08:51;;;;;;;21.35;12.65;;;;;;;3.06;64.74;95776.34;5086349;28;20028;-71
2022/02/27 04:11:17;;;;;;;24.13;12.65;;;;;;;3.02;64.75;95773.06;5088166;28;20417;-70
2022/02/27 04:13:42;;;;;;;19.90;11.77;;;;;;;3.09;65.28;95782.22;5086117;28;20418;-71
2022/02/27 04:16:08;;;;;;;23.80;13.05;;;;;;;3.03;65.00;95792.47;5087152;28;20109;-73
2022/02/27 04:18:33;;;;;;;21.65;12.77;;;;;;;3.06;65.64;95806.31;5051328;28;20122;-71
2022/02/27 04:20:58;;;;;;;21.10;12.48;;;;;;;3.12;65.19;95815.59;5086893;28;20025;-71
2022/02/27 04:23:24;;;;;;;20.50;11.98;;;;;;;3.15;65.34;95817.16;5087009;28;20032;-71
2022/02/27 04:25:49;;;;;;;19.88;11.43;;;;;;;2.99;65.99;95823.66;5086390;28;20016;-71
2022/02/27 04:28:15;;;;;;;22.02;12.05;;;;;;;2.96;65.86;95830.06;5087441;28;20474;-72
2022/02/27 04:30:40;;;;;;;25.27;12.90;;;;;;;2.91;65.99;95831.38;5085655;28;20458;-71
2022/02/27 04:33:06;;;;;;;22.38;13.13;;;;;;;2.97;65.99;95823.78;5087256;28;20490;-72
2022/02/27 04:35:31;;;;;;;22.85;12.30;;;;;;;2.95;65.32;95823.06;5085971;28;20028;-71
2022/02/27 04:37:56;;;;;;;23.85;12.70;;;;;;;3.03;65.79;95822.44;5087109;28;20020;-71
2022/02/27 04:40:22;;;;;;;24.10;13.40;;;;;;;2.97;65.63;95822.94;5086181;28;20291;-71
2022/02/27 04:42:47;;;;;;;23.38;13.18;;;;;;;2.88;66.16;95835.09;5086379;28;20387;-71
2022/02/27 04:45:13;;;;;;;23.98;12.35;;;;;;;2.90;66.25;95824.41;5086595;28;20028;-71
2022/02/27 04:47:38;;;;;;;20.23;12.00;;;;;;;2.89;66.03;95805.00;5085697;28;20039;-72
2022/02/27 04:50:04;;;;;;;20.90;12.40;;;;;;;3.00;65.94;95806.78;5087193;28;20028;-71
2022/02/27 04:52:30;;;;;;;20.15;12.15;;;;;;;3.02;66.57;95809.31;5085492;28;20078;-71
2022/02/27 04:54:55;;;;;;;28.00;13.38;;;;;;;3.04;66.75;95799.44;5085362;28;20526;-70
2022/02/27 04:57:22;;;;;;;22.20;12.25;;;;;;;3.03;66.83;95808.38;5085166;28;20515;-70
2022/02/27 04:59:47;;;;;;;22.70;12.95;;;;;;;2.92;67.84;95799.44;5068142;28;20036;-72
2022/02/27 05:02:12;;;;;;;24.05;12.80;;;;;;;2.81;67.72;95795.00;5085956;28;20020;-71
2022/02/27 05:04:38;;;;;;;22.35;13.95;;;;;;;2.74;68.54;95808.84;5085884;28;20418;-71
2022/02/27 05:07:03;;;;;;;23.10;13.65;;;;;;;2.72;68.73;95806.31;5086766;28;20422;-71
2022/02/27 05:09:29;;;;;;;21.38;12.88;;;;;;;2.68;69.20;95803.06;5084956;28;20498;-71
2022/02/27 05:11:55;;;;;;;25.00;13.40;;;;;;;2.54;70.03;95804.13;5086986;28;20024;-71
2022/02/27 05:14:20;;;;;;;21.27;12.90;;;;;;;2.47;70.13;95797.59;5083690;28;20039;-71
2022/02/27 05:16:46;;;;;;;24.90;13.50;;;;;;;2.57;70.26;95808.34;5086447;28;20020;-71
2022/02/27 05:19:13;;;;;;;26.20;14.93;;;;;;;2.50;70.91;95802.66;5085688;28;20101;-71
2022/02/27 05:21:38;;;;;;;25.98;15.50;;;;;;;2.46;71.18;95810.00;5086216;28;20043;-70
2022/02/27 05:24:04;;;;;;;24.88;13.82;;;;;;;2.45;71.35;95808.31;5086359;28;20115;-71
2022/02/27 05:26:30;;;;;;;23.38;14.48;;;;;;;2.45;71.67;95804.84;5085000;28;20024;-72
2022/02/27 05:28:55;;;;;;;31.90;15.38;;;;;;;2.45;71.41;95807.47;5085266;28;20016;-70
2022/02/27 05:31:21;;;;;;;23.20;13.85;;;;;;;2.22;72.92;95815.38;5084734;28;20028;-71
2022/02/27 05:33:46;;;;;;;28.58;14.50;;;;;;;2.15;73.22;95822.06;5086469;28;20391;-70
2022/02/27 05:36:12;;;;;;;28.58;15.35;;;;;;;2.08;74.18;95827.00;5085159;28;20028;-71
2022/02/27 05:38:37;;;;;;;25.92;14.25;;;;;;;1.95;75.45;95841.09;5086510;28;20043;-71
2022/02/27 05:41:02;;;;;;;27.17;15.40;;;;;;;2.03;74.94;95827.31;5090031;28;20074;-71
2022/02/27 05:43:28;;;;;;;30.88;15.60;;;;;;;1.99;74.57;95823.22;5089283;28;20073;-71
2022/02/27 05:45:53;;;;;;;23.98;13.55;;;;;;;1.73;75.98;95808.31;5089060;28;20032;-72
2022/02/27 05:48:19;;;;;;;27.40;13.45;;;;;;;1.83;75.94;95794.41;5088667;28;20063;-71
2022/02/27 05:50:44;;;;;;;22.15;12.98;;;;;;;1.82;75.78;95806.78;5072521;28;20032;-71
2022/02/27 05:53:09;;;;;;;25.08;13.65;;;;;;;1.82;76.22;95820.00;5088805;28;20044;-72
2022/02/27 05:55:35;;;;;;;23.15;12.52;;;;;;;1.73;76.06;95810.09;5089828;28;20035;-72
2022/02/27 05:58:01;;;;;;;32.30;14.77;;;;;;;1.70;76.70;95800.63;5089181;28;20048;-72
2022/02/27 06:00:27;;;;;;;26.02;13.20;;;;;;;1.70;76.93;95805.03;5089688;28;20032;-72
2022/02/27 06:02:52;;;;;;;22.90;13.45;;;;;;;1.77;76.50;95810.72;5088792;28;20742;-72
2022/02/27 06:05:17;;;;;;;23.30;13.95;;;;;;;1.83;77.14;95819.06;5087754;28;20028;-73
2022/02/27 06:07:43;;;;;;;25.48;14.43;;;;;;;1.92;76.35;95824.63;5090077;28;20526;-71
2022/02/27 06:10:09;;;;;;;24.95;14.15;;;;;;;1.81;77.00;95828.91;5088905;28;20089;-72
2022/02/27 06:12:34;;;;;;;28.73;14.30;;;;;;;1.77;76.55;95823.97;5090701;28;20024;-71
2022/02/27 06:15:00;;;;;;;21.67;12.52;;;;;;;1.61;77.46;95814.50;5070345;28;20032;-73
2022/02/27 06:17:25;;;;;;;24.40;13.35;;;;;;;1.61;78.21;95817.16;5088518;28;20023;-71
2022/02/27 06:19:50;;;;;;;26.20;13.63;;;;;;;1.57;78.24;95832.38;5089477;28;20032;-71
2022/02/27 06:22:16;;;;;;;25.05;14.57;;;;;;;1.39;79.23;95839.00;5089420;28;20181;-70
2022/02/27 06:24:41;;;;;;;23.67;13.55;;;;;;;1.31;79.50;95839.53;5088158;28;20028;-72
2022/02/27 06:27:07;;;;;;;28.30;14.05;;;;;;;1.28;79.60;95835.31;5088405;28;20032;-71
2022/02/27 06:29:32;;;;;;;29.38;15.05;;;;;;;1.38;80.05;95832.88;5088475;28;20036;-71
2022/02/27 06:31:58;;;;;;;32.58;14.93;;;;;;;1.42;79.54;95829.03;5088366;28;20524;-70
2022/02/27 06:34:23;;;;;;;27.70;13.82;;;;;;;1.46;79.08;95835.81;5089652;28;20035;-72
2022/02/27 06:36:48;;;;;;;28.25;14.70;;;;;;;1.43;78.94;95840.47;5088305;28;20309;-72
2022/02/27 06:39:14;;;;;;;25.23;14.73;;;;;;;1.39;79.17;95834.56;5089423;28;20032;-73
2022/02/27 06:41:39;;;;;;;25.80;13.40;;;;;;;1.43;79.69;95827.25;5088986;28;20097;-72
2022/02/27 06:44:05;;;;;;;23.75;13.25;;;;;;;1.51;80.10;95821.41;5088560;28;20028;-70
2022/02/27 06:46:30;;;;;;;26.40;14.38;;;;;;;1.54;78.97;95816.75;5089591;28;20027;-71
2022/02/27 06:48:56;;;;;;;25.25;13.50;;;;;;;1.58;78.88;95818.22;5087646;28;20052;-71
2022/02/27 06:51:21;;;;;;;21.58;13.30;;;;;;;1.57;78.96;95816.53;5088423;28;20430;-71
2022/02/27 06:53:47;;;;;;;25.65;14.23;;;;;;;1.63;79.30;95817.03;5087910;28;20046;-72
2022/02/27 06:56:12;;;;;;;26.85;13.90;;;;;;;1.67;79.24;95831.72;5088879;28;20044;-72
2022/02/27 06:58:38;;;;;;;24.20;14.45;;;;;;;1.66;78.81;95832.69;5086947;28;20036;-73
2022/02/27 07:01:03;;;;;;;25.23;13.20;;;;;;;1.64;79.52;95843.38;5088547;28;20024;-73
2022/02/27 07:03:29;;;;;;;24.90;13.05;;;;;;;1.69;78.75;95840.38;5088935;28;20024;-72
2022/02/27 07:05:54;;;;;;;23.98;13.77;;;;;;;1.74;78.52;95840.91;5086295;28;20363;-71
2022/02/27 07:08:19;;;;;;;22.75;12.35;;;;;;;1.72;78.67;95834.88;5089401;28;20562;-77
2022/02/27 07:10:45;;;;;;;24.60;14.82;;;;;;;1.76;78.27;95843.44;5086122;28;20394;-71
2022/02/27 07:13:10;;;;;;;26.75;13.63;;;;;;;1.67;79.12;95843.16;5089119;28;20035;-71
2022/02/27 07:15:36;;;;;;;28.40;13.90;;;;;;;1.71;78.31;95843.75;5087580;28;20044;-71
2022/02/27 07:18:02;;;;;;;22.73;12.65;;;;;;;1.67;78.41;95840.50;5088415;28;20047;-72
2022/02/27 07:20:28;;;;;;;23.83;13.10;;;;;;;1.65;78.83;95845.06;5070201;28;20032;-71
2022/02/27 07:22:53;;;;;;;24.52;13.80;;;;;;;1.59;78.86;95822.56;5087635;28;20487;-71
2022/02/27 07:25:19;;;;;;;23.75;12.80;;;;;;;1.52;78.19;95834.53;5088867;28;20028;-71
2022/02/27 07:27:44;;;;;;;23.17;13.82;;;;;;;1.50;78.96;95831.13;5087393;28;20039;-71
2022/02/27 07:30:10;;;;;;;23.17;14.02;;;;;;;1.44;79.53;95826.28;5070527;28;20040;-71
2022/02/27 07:32:36;;;;;;;23.15;12.82;;;;;;;1.44;79.37;95836.88;5085850;28;20107;-72
2022/02/27 07:35:01;;;;;;;24.13;13.95;;;;;;;1.47;79.72;95826.91;5088049;28;20028;-70
2022/02/27 07:37:27;;;;;;;22.08;12.80;;;;;;;1.44;79.25;95821.00;5086250;28;20034;-71
2022/02/27 07:39:52;;;;;;;20.17;12.23;;;;;;;1.48;79.85;95830.41;5086653;28;20498;-71
2022/02/27 07:42:18;;;;;;;20.10;12.63;;;;;;;1.40;80.09;95841.56;5088269;28;20024;-71
2022/02/27 07:44:43;;;;;;;24.83;13.52;;;;;;;1.41;79.93;95827.38;5087209;28;20023;-71
2022/02/27 07:47:09;;;;;;;19.90;12.00;;;;;;;1.50;79.97;95835.59;5088307;28;20036;-72
2022/02/27 07:49:34;;;;;;;21.83;12.02;;;;;;;1.47;79.76;95832.22;5086675;28;20078;-73
2022/02/27 07:51:59;;;;;;;20.90;12.38;;;;;;;1.53;79.92;95833.56;5086602;28;20024;-71
2022/02/27 07:54:25;;;;;;;20.13;11.57;;;;;;;1.59;78.97;95835.78;5085511;28;20111;-71
2022/02/27 07:56:50;;;;;;;18.85;11.95;;;;;;;1.54;79.63;95831.75;5087706;28;20036;-71
2022/02/27 07:59:17;;;;;;;19.02;11.35;;;;;;;1.45;79.18;95822.72;5086998;28;20024;-72
2022/02/27 08:01:42;;;;;;;20.40;10.85;;;;;;;1.46;79.58;95816.47;5086992;28;20035;-71
2022/02/27 08:04:08;;;;;;;16.83;10.27;;;;;;;1.39;79.40;95815.22;5086195;28;20020;-72
2022/02/27 08:06:35;;;;;;;21.10;11.23;;;;;;;1.43;79.96;95816.69;5085140;28;20024;-71
2022/02/27 08:09:02;;;;;;;17.67;10.93;;;;;;;1.48;79.54;95825.13;5087757;28;20024;-72
2022/02/27 08:11:28;;;;;;;22.42;11.52;;;;;;;1.42;79.73;95833.50;5086384;28;20024;-71
2022/02/27 08:13:54;;;;;;;17.30;10.80;;;;;;;1.42;79.75;95844.91;5086380;28;20377;-70
2022/02/27 08:16:19;;;;;;;16.50;11.07;;;;;;;1.27;80.44;95851.28;5086306;28;20024;-71
2022/02/27 08:18:45;;;;;;;16.40;10.23;;;;;;;1.35;79.78;95852.41;5087049;28;20024;-71
2022/02/27 08:21:10;;;;;;;18.30;11.25;;;;;;;1.38;80.16;95853.16;5086895;28;20028;-72
2022/02/27 08:23:36;;;;;;;18.50;11.88;;;;;;;1.43;80.35;95853.69;5085241;28;20032;-72
2022/02/27 08:26:01;;;;;;;16.55;11.23;;;;;;;1.48;79.57;95846.28;5087451;28;20501;-72
2022/02/27 08:28:28;;;;;;;16.52;10.80;;;;;;;1.44;80.27;95856.22;5084542;28;20031;-72
2022/02/27 08:30:54;;;;;;;18.73;11.35;;;;;;;1.43;80.11;95845.75;5086216;28;20414;-72
2022/02/27 08:33:19;;;;;;;16.00;10.02;;;;;;;1.43;79.53;95838.69;5084477;28;20494;-71
2022/02/27 08:35:45;;;;;;;19.05;11.13;;;;;;;1.42;79.76;95841.44;5068677;28;20032;-71
2022/02/27 08:38:10;;;;;;;17.40;10.65;;;;;;;1.46;79.55;95830.53;5085931;28;20028;-72
2022/02/27 08:40:36;;;;;;;17.85;9.95;;;;;;;1.45;80.15;95838.56;5086475;28;20020;-71
2022/02/27 08:43:01;;;;;;;14.35;9.43;;;;;;;1.51;79.50;95830.19;5085648;28;20020;-72
2022/02/27 08:45:27;;;;;;;17.25;10.30;;;;;;;1.50;79.91;95822.38;5084076;28;20116;-73
2022/02/27 08:47:52;;;;;;;15.40;9.88;;;;;;;1.52;79.91;95813.38;5069365;28;20020;-72
2022/02/27 08:50:18;;;;;;;17.85;9.68;;;;;;;1.53;79.70;95825.63;5085463;28;20028;-72
2022/02/27 08:52:43;;;;;;;16.63;9.82;;;;;;;1.60;80.28;95815.44;5085784;28;20024;-72
2022/02/27 08:55:10;;;;;;;15.38;10.27;;;;;;;1.60;79.66;95820.75;5085428;28;20028;-71
2022/02/27 08:57:35;;;;;;;16.90;10.68;;;;;;;1.67;79.62;95816.72;5086456;28;20052;-72
2022/02/27 09:00:01;;;;;;;15.95;9.48;;;;;;;1.72;79.29;95825.16;5085120;28;20047;-72
2022/02/27 09:02:27;;;;;;;13.60;9.23;;;;;;;1.81;78.62;95828.91;5085621;28;20134;-72
2022/02/27 09:04:53;;;;;;;15.77;9.20;;;;;;;1.83;78.59;95832.28;5086949;28;20768;-71
2022/02/27 09:07:18;;;;;;;16.10;9.35;;;;;;;1.83;78.24;95834.94;5084973;28;20024;-72
2022/02/27 09:09:44;;;;;;;13.73;8.65;;;;;;;1.73;78.35;95825.97;5086866;28;20036;-71
2022/02/27 09:12:10;;;;;;;13.50;8.25;;;;;;;1.75;77.92;95833.78;5085486;28;20478;-71
2022/02/27 09:14:38;;;;;;;12.48;8.85;;;;;;;1.76;78.32;95831.03;5084457;28;20028;-71
2022/02/27 09:17:04;;;;;;;11.90;8.20;;;;;;;1.67;78.70;95821.13;5086033;28;20032;-72
2022/02/27 09:19:29;;;;;;;11.10;7.85;;;;;;;1.71;77.64;95823.44;5084443;28;20024;-71
2022/02/27 09:21:55;;;;;;;11.57;8.15;;;;;;;1.71;78.02;95822.59;5086572;28;20069;-72
2022/02/27 09:24:20;;;;;;;15.02;8.52;;;;;;;1.56;78.23;95828.06;5085012;28;20089;-72
2022/02/27 09:26:46;;;;;;;12.32;8.82;;;;;;;1.60;78.92;95826.88;5085495;28;20024;-71
2022/02/27 09:29:12;;;;;;;15.73;9.45;;;;;;;1.61;79.08;95819.81;5085205;28;20021;-72
2022/02/27 09:31:37;;;;;;;16.63;10.60;;;;;;;1.52;78.43;95823.94;5086393;28;20112;-71
2022/02/27 09:34:03;;;;;;;19.75;11.23;;;;;;;1.53;79.00;95824.78;5084238;28;20440;-72
2022/02/27 09:36:28;;;;;;;15.50;9.68;;;;;;;1.45;78.85;95820.88;5085959;28;20039;-72
2022/02/27 09:38:54;;;;;;;14.82;9.20;;;;;;;1.52;78.47;95804.59;5084656;28;20028;-72
2022/02/27 09:41:19;;;;;;;12.57;8.65;;;;;;;1.53;79.59;95812.41;5085384;28;20063;-71
2022/02/27 09:43:50;;;;;;;12.60;8.20;;;;;;;1.53;78.99;95807.09;5086810;28;20028;-72
2022/02/27 09:46:16;;;;;;;11.90;7.95;;;;;;;1.47;79.07;95805.78;5067750;28;20036;-71
2022/02/27 09:48:41;;;;;;;15.48;8.85;;;;;;;1.50;78.82;95815.25;5068197;28;20078;-71
2022/02/27 09:51:07;;;;;;;13.55;8.65;;;;;;;1.56;79.24;95812.22;5067097;28;20101;-72
2022/02/27 09:53:32;;;;;;;15.43;9.35;;;;;;;1.52;78.51;95816.00;5086055;28;20017;-70
2022/02/27 09:55:57;;;;;;;14.80;8.68;;;;;;;1.49;79.15;95818.88;5067431;28;20039;-71
2022/02/27 09:58:23;;;;;;;14.80;8.88;;;;;;;1.48;78.58;95812.72;5085648;28;20081;-71
2022/02/27 10:00:48;;;;;;;11.95;7.68;;;;;;;1.41;79.16;95808.00;5085958;28;20082;-72
2022/02/27 10:03:15;;;;;;;12.93;8.57;;;;;;;1.46;79.25;95812.03;5083572;28;20032;-72
2022/02/27 10:05:47;;;;;;;13.40;8.13;;;;;;;1.34;79.41;95818.16;5084990;28;20408;-71
2022/02/27 10:08:13;;;;;;;13.10;8.10;;;;;;;1.40;79.47;95811.63;5083424;28;20024;-72
2022/02/27 10:10:58;;;;;;;11.10;7.75;;;;;;;1.46;79.76;95814.66;5084863;28;20103;-71
2022/02/27 10:13:53;;;;;;;16.70;7.45;;;;;;;1.34;80.04;95805.81;5085178;28;20039;-72
2022/02/27 10:16:26;;;;;;;12.80;7.15;;;;;;;1.30;79.83;95799.06;5081011;28;20040;-71
2022/02/27 10:18:59;;;;;;;7.60;5.60;;;;;;;1.28;79.34;95785.13;5084712;28;20023;-72
2022/02/27 10:21:31;;;;;;;8.05;5.72;;;;;;;1.31;79.84;95792.81;5084947;28;20448;-72
2022/02/27 10:24:08;;;;;;;7.25;5.00;;;;;;;1.38;80.44;95800.31;5084845;28;20028;-73
2022/02/27 10:26:34;;;;;;;6.25;5.20;;;;;;;1.42;80.54;95799.97;5087820;28;20039;-72
2022/02/27 10:29:09;;;;;;;6.85;4.82;;;;;;;1.48;79.70;95796.88;5088836;28;20028;-71
2022/02/27 10:31:35;;;;;;;7.68;5.90;;;;;;;1.52;79.76;95799.28;5089900;28;20024;-72
2022/02/27 10:34:13;;;;;;;8.00;5.57;;;;;;;1.55;79.64;95799.91;5087961;28;20574;-71
2022/02/27 10:36:51;;;;;;;11.13;5.88;;;;;;;1.70;79.29;95805.03;5089210;28;20028;-72
2022/02/27 10:39:25;;;;;;;8.13;5.85;;;;;;;1.75;78.90;95804.69;5088615;28;20027;-72
2022/02/27 10:41:51;;;;;;;10.55;6.97;;;;;;;1.87;79.91;95795.03;5088111;28;20028;-71
2022/02/27 10:44:21;;;;;;;8.45;5.97;;;;;;;1.92;79.04;95787.59;5088133;28;20031;-71
2022/02/27 10:46:47;;;;;;;9.40;6.35;;;;;;;1.95;79.16;95787.38;5086052;28;20079;-73
2022/02/27 10:49:12;;;;;;;10.02;6.63;;;;;;;2.00;79.03;95785.19;5088176;28;20379;-74
2022/02/27 10:51:40;;;;;;;9.00;5.97;;;;;;;2.12;78.32;95787.88;5087934;28;20028;-72
2022/02/27 10:54:05;;;;;;;8.38;6.00;;;;;;;2.13;78.14;95784.31;5088967;28;20490;-72
2022/02/27 10:56:34;;;;;;;11.43;6.80;;;;;;;2.17;78.65;95781.31;5088217;28;20055;-71
2022/02/27 10:59:10;;;;;;;11.27;7.28;;;;;;;2.25;78.10;95782.50;5088097;28;20807;-72
2022/02/27 11:01:36;;;;;;;9.18;6.30;;;;;;;2.30;78.24;95775.94;5087930;28;20082;-71
2022/02/27 11:04:01;;;;;;;9.52;6.75;;;;;;;2.31;78.52;95782.03;5068951;28;20027;-72
2022/02/27 11:06:27;;;;;;;9.82;6.03;;;;;;;2.33;77.94;95780.97;5070981;28;20020;-71
2022/02/27 11:08:52;;;;;;;9.40;6.20;;;;;;;2.24;78.13;95779.03;5069152;28;20035;-71
2022/02/27 11:11:18;;;;;;;8.05;6.32;;;;;;;2.34;77.73;95780.00;5088756;28;20020;-72
2022/02/27 11:13:46;;;;;;;9.13;6.10;;;;;;;2.35;78.49;95771.09;5069853;28;20031;-72
2022/02/27 11:16:12;;;;;;;8.23;6.07;;;;;;;2.43;77.64;95767.03;5069699;28;20035;-71
2022/02/27 11:18:40;;;;;;;9.52;6.15;;;;;;;2.46;77.67;95753.56;5088931;28;20024;-72
2022/02/27 11:21:06;;;;;;;9.00;6.18;;;;;;;2.44;77.52;95753.69;5068932;28;20055;-71
2022/02/27 11:23:32;;;;;;;8.88;6.40;;;;;;;2.43;77.14;95759.09;5087582;28;20032;-72